Aviation Digital Data Service (ADDS)

Output produced by METARs form (0642 UTC 24 March 2019)
found at http://www.aviationweather.gov/metar/data/
 
FABM 240548Z 12001KT 9999 FEW020 16/12 Q1024
FABL 240600Z 02009KT CAVOK 18/12 Q1023 NOSIG
TAF FABL 240400Z 2406/2506 03012KT 9999 SCT045 TX25/2413Z TN15/2504Z 
     TEMPO 2409/2417 5000 TSRA SCT055CB 
     FM241800 VRB03KT CAVOK
       
FACV 240626Z 34001KT CAVOK 18/02 Q1015
FACT 240600Z 20010KT 9999 FEW005 19/17 Q1012 NOSIG
TAF FACT 240400Z 2406/2512 21012KT 9999 BKN008 TX25/2412Z TN16/2504Z 
     BECMG 2407/2409 SCT010 
     FM241000 18018KT 9999 FEW020 
     BECMG 2422/2424 17008KT 
     BECMG 2510/2512 17020KT
       
FAEL 240624Z VRB02KT CAVOK 27/19 Q1009
TAF FAEL 240300Z 2404/2415 03012KT CAVOK TX30/2410Z TN21/2404Z 
     TEMPO 2409/2410 VRB03KT 
     BECMG 2410/2412 23019KT SCT008 
     PROB30 
     TEMPO 2411/2415 BKN008
       
FAGG 240636Z 24011KT 2000 BR SCT002 BKN004 17/17 Q1012
TAF FAGG 240400Z 2406/2506 28010KT 9999 FEW010 TX24/2410Z TN16/2504Z 
     TEMPO 2406/2407 0500 FG 
     FM241000 20015KT 9999 BKN025 
     PROB30 
     TEMPO 2416/2424 4000 -RA BKN008 
     PROB30 
     TEMPO 2500/2506 4000 -RA BKN008
       
FAHS 240600Z AUTO 15003KT //// // ////// 23/18 Q1021
TAF FAHS 240600Z 2407/2418 VRB03KT 9999 SCT015 TX32/2413Z TN25/2407Z 
     BECMG 2409/2411 06007KT CAVOK 
     PROB30 
     TEMPO 2413/2418 FEW025TCU
       
FAKM 240600Z 36015KT CAVOK 21/13 Q1019
TAF FAKM 240600Z 2407/2418 35015KT CAVOK TX32/2412Z TN24/2418Z 
     BECMG 2407/2409 SCT050TCU 
     PROB40 
     TEMPO 2413/2415 TSRA SCT045CB
       
FALW 240600Z AUTO 03008KT //// // ////// 16/15 Q1012
FALA 240600Z 01006KT 300V030 9999 SCT015 18/14 Q1025 NOSIG
TAF AMD FALA 240225Z 2400/2424 VRB03KT CAVOK TX27/2413Z TN16/2403Z 
     PROB30 
     TEMPO 2403/2405 BKN010 
     BECMG 2407/2409 BKN030 
     BECMG 2408/2410 30008KT SCT045 
     PROB30 
     TEMPO 2412/2415 FEW045TCU 
     BECMG 2415/2417 VRB03KT CAVOK
       
FAMM 240622Z 04016KT 9999 FEW045CB BKN100 18/15 Q1023
TAF FAMM 240300Z 2404/2415 04015KT 9999 TS FEW050CB TX29/2413Z TN18/2404Z 
     FM240500 02009KT CAVOK 
     PROB40 
     TEMPO 2409/2415 FEW045TCU 
     PROB30 
     TEMPO 2413/2415 -TSRA FEW040CB
       
FAOB 240600Z AUTO 33004KT //// // ////// 22/19 Q1012
TAF FAPM 240600Z 2407/2418 04005KT CAVOK TX33/2412Z TN22/2418Z 
     BECMG 2411/2413 10007KT 
     PROB30 
     TEMPO 2415/2418 TSRA SCT030 FEW040CB
       
FAPN 240600Z AUTO 33002KT //// // ////// 21/13 Q1023
FAPE 240600Z 23013KT 9999 FEW008 21/19 Q1008 NOSIG
TAF FAPE 240400Z 2406/2506 24010KT 9000 FEW008 TX24/2412Z TN19/2504Z 
     BECMG 2408/2410 24018KT 
     BECMG 2413/2415 BKN008 
     TEMPO 2413/2415 23025G35KT 
     PROB30 
     TEMPO 2416/2506 4500 -RA BKN005
       
FAGM 240500Z 35009KT 9999 BKN045 16/12 Q1026
TAF FARB 240600Z 2407/2418 36011KT CAVOK TX32/2412Z TN24/2418Z 
     FM241000 03015G25KT CAVOK
       
FASB 240601Z 26008KT 0500 FG OVC005 11/10 Q1016
FAUT 240600Z 29001KT CAVOK 22/15 Q1015
TAF FAUT 240300Z 2404/2415 VRB03KT CAVOK TX32/2412Z TN19/2404Z 
     BECMG 2408/2410 SCT065TCU 
     PROB40 
     TEMPO 2410/2415 6000 TSRA SCT060CB
       
FAUP 240600Z 34007KT CAVOK 26/12 Q1014 NOSIG
TAF FAUP 240400Z 2406/2506 33015KT CAVOK TX35/2413Z TN14/2504Z 
     BECMG 2416/2418 21012KT
       
FAWB 240600Z 06006KT CAVOK 20/15 Q1014
TAF FAWB 240600Z 2407/2418 04008KT 9999 SCT025 TX33/2413Z TN26/2418Z 
     BECMG 2408/2410 CAVOK 
     BECMG 2411/2413 SCT035 
     BECMG 2414/2416 34005KT 
     BECMG 2416/2418 CAVOK